Time;durP1;ratioP1;P1;durP2;ratioP2;P2;SDS_P1;SDS_P2;PMS_P1;PMS_P2;Temp;Humidity;BMP_temperature;BMP_pressure;BME280_temperature;BME280_humidity;BME280_pressure;Samples;Min_cycle;Max_cycle;Signal;HPM_P1;HPM_P2
2020/12/21 00:00:37;;;;;;;10.73;9.63;;;9.30;99.90;;;;;;4989913;28;20660;-67
2020/12/21 00:03:22;;;;;;;14.10;10.47;;;9.30;99.90;;;;;;4980514;28;20751;-67
2020/12/21 00:06:11;;;;;;;13.50;9.30;;;9.30;99.90;;;;;;4982778;28;21170;-68
2020/12/21 00:08:56;;;;;;;12.50;9.80;;;9.30;99.90;;;;;;4984135;28;20644;-67
2020/12/21 00:11:41;;;;;;;11.73;10.27;;;9.30;99.90;;;;;;4973073;28;20644;-67
2020/12/21 00:14:25;;;;;;;12.23;9.60;;;9.30;99.90;;;;;;4973959;28;20776;-67
2020/12/21 00:17:10;;;;;;;11.27;9.87;;;9.40;99.90;;;;;;4966131;28;20664;-68
2020/12/21 00:19:57;;;;;;;11.43;9.67;;;9.20;99.90;;;;;;4985139;28;20604;-67
2020/12/21 00:22:41;;;;;;;15.33;11.77;;;9.20;99.90;;;;;;4958067;28;20669;-67
2020/12/21 00:25:26;;;;;;;14.27;10.80;;;9.20;99.90;;;;;;4983446;28;20605;-68
2020/12/21 00:28:10;;;;;;;11.40;10.10;;;9.20;99.90;;;;;;4970691;28;20663;-67
2020/12/21 00:30:54;;;;;;;11.90;9.97;;;9.20;99.90;;;;;;4969041;28;20711;-67
2020/12/21 00:33:42;;;;;;;13.40;9.60;;;9.20;99.90;;;;;;4978277;28;20719;-67
2020/12/21 00:36:27;;;;;;;15.43;9.63;;;9.10;99.90;;;;;;4973003;28;20640;-67
2020/12/21 00:39:16;;;;;;;11.37;10.20;;;9.10;99.90;;;;;;4990456;28;20617;-67
2020/12/21 00:42:01;;;;;;;12.23;9.37;;;9.10;99.90;;;;;;4957289;28;20644;-67
2020/12/21 00:44:45;;;;;;;10.93;9.47;;;9.20;99.90;;;;;;4973929;28;20628;-67
2020/12/21 00:47:33;;;;;;;16.43;10.37;;;9.20;99.90;;;;;;4977813;28;21249;-67
2020/12/21 00:50:17;;;;;;;11.30;9.83;;;9.10;99.90;;;;;;4961973;28;20605;-67
2020/12/21 00:53:03;;;;;;;12.10;9.80;;;9.10;99.90;;;;;;4976660;28;20719;-67
2020/12/21 00:55:48;;;;;;;12.57;9.27;;;9.00;99.90;;;;;;4965108;28;20691;-67
2020/12/21 00:58:34;;;;;;;10.70;9.10;;;9.00;99.90;;;;;;4982969;28;20596;-68
2020/12/21 01:01:22;;;;;;;11.30;9.60;;;9.00;99.90;;;;;;4967595;28;20648;-68
2020/12/21 01:04:06;;;;;;;12.77;8.70;;;9.00;99.90;;;;;;4964242;28;21047;-67
2020/12/21 01:06:54;;;;;;;13.03;8.63;;;8.90;99.90;;;;;;4972773;28;20645;-67
2020/12/21 01:09:39;;;;;;;13.37;9.73;;;8.90;99.90;;;;;;4977810;28;20625;-68
2020/12/21 01:12:23;;;;;;;11.00;9.40;;;8.90;99.90;;;;;;4988279;28;20750;-67
2020/12/21 01:15:08;;;;;;;13.30;9.57;;;8.90;99.90;;;;;;4973141;28;20679;-68
2020/12/21 01:17:52;;;;;;;10.40;8.90;;;8.80;99.90;;;;;;4974834;28;20625;-67
2020/12/21 01:20:36;;;;;;;10.83;9.17;;;8.70;99.90;;;;;;4972829;28;20665;-67
2020/12/21 01:23:21;;;;;;;9.70;8.60;;;8.80;99.90;;;;;;4982329;28;20759;-67
2020/12/21 01:26:06;;;;;;;11.27;9.00;;;8.80;99.90;;;;;;4968538;28;20756;-67
2020/12/21 01:28:50;;;;;;;10.67;8.23;;;8.80;99.90;;;;;;4973129;28;20598;-67
2020/12/21 01:31:34;;;;;;;11.87;8.47;;;8.80;99.90;;;;;;4968904;28;20636;-67
2020/12/21 01:34:19;;;;;;;11.47;8.77;;;8.80;99.90;;;;;;4957642;28;21024;-67
2020/12/21 01:37:04;;;;;;;11.50;8.30;;;8.70;99.90;;;;;;4971610;28;20625;-67
2020/12/21 01:39:48;;;;;;;8.83;7.83;;;8.70;99.90;;;;;;4977196;28;20628;-67
2020/12/21 01:42:33;;;;;;;13.80;9.13;;;8.70;99.90;;;;;;4978040;28;20632;-68
2020/12/21 01:45:18;;;;;;;12.97;9.00;;;8.60;99.90;;;;;;4977659;28;20737;-67
2020/12/21 01:48:02;;;;;;;11.43;8.13;;;8.60;99.90;;;;;;4985680;28;21049;-67
2020/12/21 01:50:47;;;;;;;9.73;8.73;;;8.70;99.90;;;;;;4965968;28;21180;-68
2020/12/21 01:53:34;;;;;;;11.10;7.80;;;8.70;99.90;;;;;;4967621;28;20713;-67
2020/12/21 01:56:20;;;;;;;8.97;7.70;;;8.70;99.90;;;;;;4974351;28;20620;-67
2020/12/21 01:59:06;;;;;;;9.73;8.63;;;8.60;99.90;;;;;;4976631;28;20613;-67
2020/12/21 02:01:51;;;;;;;15.73;8.10;;;8.50;99.90;;;;;;4977306;28;21223;-67
2020/12/21 02:04:36;;;;;;;9.63;7.30;;;8.60;99.90;;;;;;4974532;28;20728;-67
2020/12/21 02:07:24;;;;;;;9.00;7.80;;;8.60;99.90;;;;;;4960693;28;20629;-67
2020/12/21 02:10:09;;;;;;;12.47;6.90;;;8.60;99.90;;;;;;4962567;28;20655;-67
2020/12/21 02:12:53;;;;;;;10.87;6.87;;;8.60;99.90;;;;;;4979734;28;20844;-67
2020/12/21 02:15:38;;;;;;;9.43;6.73;;;8.60;99.90;;;;;;4967022;28;20656;-67
2020/12/21 02:18:22;;;;;;;8.83;5.80;;;8.50;99.90;;;;;;4981184;28;20703;-67
2020/12/21 02:21:07;;;;;;;13.77;7.67;;;8.60;99.90;;;;;;4959704;28;20640;-67
2020/12/21 02:23:52;;;;;;;10.10;6.40;;;8.60;99.90;;;;;;4978971;28;20740;-67
2020/12/21 02:26:40;;;;;;;7.60;6.20;;;8.60;99.90;;;;;;4990164;28;20605;-67
2020/12/21 02:29:24;;;;;;;8.63;5.97;;;8.60;99.90;;;;;;4958927;28;20637;-67
2020/12/21 02:32:09;;;;;;;9.30;5.83;;;8.60;99.90;;;;;;4980355;28;21262;-67
2020/12/21 02:34:53;;;;;;;6.47;5.43;;;8.60;99.90;;;;;;4963153;28;20674;-67
2020/12/21 02:37:38;;;;;;;9.67;6.10;;;8.60;99.90;;;;;;4969337;28;21114;-67
2020/12/21 02:40:23;;;;;;;7.43;5.20;;;8.70;99.90;;;;;;4990975;28;21250;-67
2020/12/21 02:43:08;;;;;;;10.23;6.50;;;8.70;99.90;;;;;;4975030;28;20796;-67
2020/12/21 02:45:52;;;;;;;6.47;5.60;;;8.70;99.90;;;;;;4984438;28;20609;-68
2020/12/21 02:48:37;;;;;;;9.80;6.17;;;8.70;99.90;;;;;;4993652;28;20636;-67
2020/12/21 02:51:21;;;;;;;9.73;6.97;;;8.70;99.90;;;;;;4976793;28;20774;-67
2020/12/21 02:54:06;;;;;;;9.63;6.43;;;8.70;99.90;;;;;;4977977;28;21023;-67
2020/12/21 02:56:54;;;;;;;8.87;6.40;;;8.70;99.90;;;;;;4973195;28;20800;-67
2020/12/21 02:59:39;;;;;;;7.90;5.83;;;8.70;99.90;;;;;;4974575;28;20637;-67
2020/12/21 03:02:23;;;;;;;8.67;5.93;;;8.70;99.90;;;;;;4965326;28;20712;-67
2020/12/21 03:05:08;;;;;;;9.00;6.57;;;8.80;99.90;;;;;;5082650;22;21163;-68
2020/12/21 03:07:52;;;;;;;8.60;6.40;;;8.70;99.90;;;;;;5025438;28;21082;-69
2020/12/21 03:10:38;;;;;;;9.43;6.47;;;8.80;99.90;;;;;;5026855;28;20776;-69
2020/12/21 03:13:22;;;;;;;9.50;6.90;;;8.70;99.90;;;;;;5030650;28;21256;-69
2020/12/21 03:16:07;;;;;;;8.73;6.63;;;8.70;99.90;;;;;;5056166;28;21052;-69
2020/12/21 03:18:52;;;;;;;7.93;6.70;;;8.80;99.90;;;;;;5053015;28;20612;-69
2020/12/21 03:21:36;;;;;;;10.97;7.57;;;8.70;99.90;;;;;;5047405;28;20640;-68
2020/12/21 03:24:21;;;;;;;9.53;6.63;;;8.70;99.90;;;;;;5055904;28;20651;-68
2020/12/21 03:27:05;;;;;;;8.80;7.00;;;8.60;99.90;;;;;;5053537;28;20705;-69
2020/12/21 03:29:50;;;;;;;12.07;6.60;;;8.60;99.90;;;;;;5053013;28;21188;-68
2020/12/21 03:32:35;;;;;;;9.53;6.40;;;8.60;99.90;;;;;;5046956;28;20633;-68
2020/12/21 03:35:23;;;;;;;9.33;7.20;;;8.60;99.90;;;;;;5047757;28;21272;-66
2020/12/21 03:38:07;;;;;;;11.40;7.30;;;8.60;99.90;;;;;;5050953;28;20724;-69
2020/12/21 03:40:52;;;;;;;14.10;7.37;;;8.60;99.90;;;;;;5046869;28;20588;-69
2020/12/21 03:43:36;;;;;;;12.30;8.23;;;8.60;99.90;;;;;;5052643;28;20644;-68
2020/12/21 03:46:21;;;;;;;10.33;7.60;;;8.60;99.90;;;;;;5039197;28;21097;-68
2020/12/21 03:49:06;;;;;;;9.97;8.17;;;8.60;99.90;;;;;;5033093;28;20597;-68
2020/12/21 03:51:51;;;;;;;8.90;7.30;;;8.60;99.90;;;;;;5041043;28;20637;-69
2020/12/21 03:54:35;;;;;;;13.47;7.57;;;8.60;99.90;;;;;;5053606;28;20711;-69
2020/12/21 03:57:19;;;;;;;8.80;7.30;;;8.60;99.90;;;;;;5054161;28;20624;-67
2020/12/21 04:00:06;;;;;;;10.80;7.50;;;8.70;99.90;;;;;;5034983;28;20654;-67
2020/12/21 04:02:51;;;;;;;13.80;7.87;;;8.60;99.90;;;;;;5033525;28;20712;-67
2020/12/21 04:05:39;;;;;;;11.10;7.80;;;8.70;99.90;;;;;;5052240;28;20590;-67
2020/12/21 04:08:23;;;;;;;13.87;8.00;;;8.70;99.90;;;;;;5049743;28;20628;-67
2020/12/21 04:11:08;;;;;;;12.20;8.73;;;8.70;99.90;;;;;;5050880;28;20763;-67
2020/12/21 04:13:52;;;;;;;9.30;7.20;;;8.70;99.90;;;;;;5053928;28;20704;-67
2020/12/21 04:16:38;;;;;;;12.63;7.23;;;8.70;99.90;;;;;;5052182;28;20801;-67
2020/12/21 04:19:22;;;;;;;11.60;8.30;;;8.70;99.90;;;;;;5058049;28;20592;-67
2020/12/21 04:22:07;;;;;;;14.13;8.37;;;8.70;99.90;;;;;;5043953;28;20641;-67
2020/12/21 04:24:52;;;;;;;11.70;8.37;;;8.70;99.90;;;;;;5041951;28;20765;-67
2020/12/21 04:27:36;;;;;;;8.73;7.47;;;8.70;99.90;;;;;;5053834;28;21095;-67
2020/12/21 04:30:21;;;;;;;12.10;8.27;;;8.70;99.90;;;;;;5036244;28;20970;-67
2020/12/21 04:33:05;;;;;;;10.73;8.40;;;8.70;99.90;;;;;;5076037;28;20656;-66
2020/12/21 04:35:50;;;;;;;13.93;9.00;;;8.90;99.90;;;;;;5050817;28;20709;-66
2020/12/21 04:38:35;;;;;;;12.00;8.20;;;8.90;99.90;;;;;;5052236;28;20625;-67
2020/12/21 04:41:20;;;;;;;13.50;8.77;;;8.90;99.90;;;;;;5052790;28;20648;-66
2020/12/21 04:44:05;;;;;;;13.97;8.50;;;9.00;99.90;;;;;;5068507;28;20729;-67
2020/12/21 04:46:59;;;;;;;9.27;7.80;;;8.90;99.90;;;;;;5054317;28;20612;-67
2020/12/21 04:49:45;;;;;;;13.80;8.90;;;9.00;99.90;;;;;;5075597;28;20714;-67
2020/12/21 04:52:31;;;;;;;12.57;8.53;;;8.90;99.90;;;;;;5045684;28;20641;-67
2020/12/21 04:55:24;;;;;;;14.40;8.37;;;9.00;99.90;;;;;;5056772;28;20695;-67
2020/12/21 04:58:09;;;;;;;10.33;8.40;;;9.00;99.90;;;;;;5037781;28;20703;-67
2020/12/21 05:00:53;;;;;;;11.70;8.53;;;9.10;99.90;;;;;;5049420;28;20617;-67
2020/12/21 05:03:38;;;;;;;11.40;8.87;;;9.10;99.90;;;;;;5039609;28;20665;-67
2020/12/21 05:06:22;;;;;;;11.10;9.07;;;9.10;99.90;;;;;;5046623;28;20729;-67
2020/12/21 05:09:08;;;;;;;11.07;9.33;;;9.10;99.90;;;;;;5037677;28;20625;-67
2020/12/21 05:12:03;;;;;;;11.57;8.80;;;9.10;99.90;;;;;;5046041;28;20625;-67
2020/12/21 05:14:49;;;;;;;12.87;8.70;;;9.10;99.90;;;;;;5040072;28;20669;-67
2020/12/21 05:17:35;;;;;;;9.67;8.30;;;9.00;99.90;;;;;;5045976;28;20620;-66
2020/12/21 05:20:22;;;;;;;13.83;10.80;;;9.00;99.90;;;;;;5051137;28;20605;-67
2020/12/21 05:23:16;;;;;;;12.80;9.13;;;9.00;99.90;;;;;;5053733;28;20709;-67
2020/12/21 05:26:02;;;;;;;15.17;9.87;;;9.00;99.90;;;;;;5042898;28;20592;-67
2020/12/21 05:28:47;;;;;;;11.57;8.80;;;9.10;99.90;;;;;;5049849;28;21208;-67
2020/12/21 05:31:31;;;;;;;12.73;9.60;;;9.00;99.90;;;;;;5035306;28;21117;-67
2020/12/21 05:34:28;;;;;;;12.07;9.10;;;9.10;99.90;;;;;;5044930;28;21039;-67
2020/12/21 05:37:17;;;;;;;9.67;8.23;;;9.10;99.90;;;;;;5043008;28;20669;-67
2020/12/21 05:40:04;;;;;;;13.20;8.97;;;9.10;99.90;;;;;;5045633;28;20764;-67
2020/12/21 05:42:49;;;;;;;12.33;8.80;;;9.20;99.90;;;;;;5049376;28;20744;-67
2020/12/21 05:45:33;;;;;;;11.57;9.10;;;9.20;99.90;;;;;;5043816;28;20612;-67
2020/12/21 05:48:18;;;;;;;10.07;8.93;;;9.10;99.90;;;;;;5046051;28;20672;-65
2020/12/21 05:51:05;;;;;;;9.80;8.60;;;9.10;99.90;;;;;;5043753;28;20939;-65
2020/12/21 05:53:54;;;;;;;12.30;9.00;;;9.10;99.90;;;;;;5048215;28;20710;-67
2020/12/21 05:56:39;;;;;;;14.20;9.37;;;9.10;99.90;;;;;;5045197;28;20790;-67
2020/12/21 05:59:25;;;;;;;10.43;8.80;;;9.20;99.90;;;;;;5041182;28;21081;-66
2020/12/21 06:02:12;;;;;;;12.20;9.17;;;9.10;99.90;;;;;;5039363;28;20629;-67
2020/12/21 06:05:12;;;;;;;12.80;9.20;;;9.10;99.90;;;;;;5059525;28;20660;-67
2020/12/21 06:08:05;;;;;;;12.50;9.53;;;9.20;99.90;;;;;;5048980;28;20647;-67
2020/12/21 06:10:54;;;;;;;11.90;9.60;;;9.10;99.90;;;;;;5044210;28;20670;-68
2020/12/21 06:13:42;;;;;;;13.10;9.40;;;9.10;99.90;;;;;;5045487;28;20637;-67
2020/12/21 06:16:31;;;;;;;12.70;8.70;;;9.20;99.90;;;;;;5050101;28;20643;-67
2020/12/21 06:19:24;;;;;;;12.03;9.10;;;9.20;99.90;;;;;;5042079;28;21023;-68
2020/12/21 06:22:23;;;;;;;12.80;9.27;;;9.20;99.90;;;;;;5056004;28;20790;-68
2020/12/21 06:25:08;;;;;;;15.13;9.33;;;9.20;99.90;;;;;;5054780;28;20660;-68
2020/12/21 06:28:07;;;;;;;12.63;8.80;;;9.10;99.90;;;;;;5070365;28;20589;-68
2020/12/21 06:30:52;;;;;;;11.93;9.20;;;9.20;99.90;;;;;;5050856;28;21166;-68
2020/12/21 06:33:40;;;;;;;11.93;9.67;;;9.10;99.90;;;;;;5070843;28;20647;-68
2020/12/21 06:36:31;;;;;;;14.70;9.40;;;9.10;99.90;;;;;;5060050;28;20632;-68
2020/12/21 06:39:31;;;;;;;15.73;8.97;;;9.10;99.90;;;;;;5058304;28;21005;-70
2020/12/21 06:42:24;;;;;;;16.00;9.10;;;9.10;99.90;;;;;;5039583;28;21318;-68
2020/12/21 06:45:12;;;;;;;9.27;8.00;;;9.10;99.90;;;;;;5064878;28;20997;-68
2020/12/21 06:47:57;;;;;;;13.07;9.27;;;9.10;99.90;;;;;;5050707;28;20624;-68
2020/12/21 06:50:41;;;;;;;12.97;9.87;;;9.00;99.90;;;;;;5053290;28;20592;-68
2020/12/21 06:53:29;;;;;;;13.90;9.73;;;9.00;99.90;;;;;;5054587;28;20680;-67
2020/12/21 06:56:14;;;;;;;10.90;9.23;;;9.00;99.90;;;;;;5042474;28;20799;-68
2020/12/21 06:59:00;;;;;;;10.37;9.17;;;9.00;99.90;;;;;;5046880;28;20622;-68
2020/12/21 07:01:46;;;;;;;12.60;9.00;;;9.00;99.90;;;;;;5045324;28;20686;-66
2020/12/21 07:04:33;;;;;;;12.20;9.60;;;9.10;99.90;;;;;;5041723;28;20716;-68
2020/12/21 07:07:17;;;;;;;17.80;8.93;;;9.10;99.90;;;;;;5025191;28;23158;-65
2020/12/21 07:10:02;;;;;;;9.70;8.33;;;9.10;99.90;;;;;;5050615;28;20613;-68
2020/12/21 07:12:47;;;;;;;12.90;8.80;;;9.10;99.90;;;;;;5049635;28;20638;-68
2020/12/21 07:15:32;;;;;;;14.77;9.17;;;9.00;99.90;;;;;;5049916;28;20617;-68
2020/12/21 07:18:17;;;;;;;14.50;8.47;;;9.00;99.90;;;;;;5045850;28;20585;-68
2020/12/21 07:21:06;;;;;;;13.77;8.77;;;9.00;99.90;;;;;;5042231;28;20687;-68
2020/12/21 07:23:51;;;;;;;13.63;8.20;;;8.90;99.90;;;;;;5049090;28;21023;-67
2020/12/21 07:26:36;;;;;;;10.90;9.13;;;8.90;99.90;;;;;;5057191;28;20593;-71
2020/12/21 07:29:21;;;;;;;15.63;9.97;;;8.90;99.90;;;;;;5042855;28;20659;-68
2020/12/21 07:32:06;;;;;;;13.03;9.23;;;8.90;99.90;;;;;;5047690;28;20644;-68
2020/12/21 07:34:52;;;;;;;12.60;9.17;;;8.80;99.90;;;;;;5053644;28;20656;-67
2020/12/21 07:37:37;;;;;;;13.20;8.53;;;8.80;99.90;;;;;;5051192;28;21157;-70
2020/12/21 07:40:24;;;;;;;12.50;8.73;;;8.90;99.90;;;;;;5041691;28;20655;-68
2020/12/21 07:43:15;;;;;;;19.70;10.20;;;8.90;99.90;;;;;;5050051;28;20838;-67
2020/12/21 07:46:04;;;;;;;10.73;7.77;;;8.90;99.90;;;;;;5051746;28;23513;-68
2020/12/21 07:48:49;;;;;;;13.53;8.97;;;8.90;99.90;;;;;;5052360;28;21127;-68
2020/12/21 07:51:38;;;;;;;10.80;9.20;;;9.00;99.90;;;;;;5063855;28;20645;-67
2020/12/21 07:54:23;;;;;;;12.70;8.37;;;8.90;99.90;;;;;;5056641;28;20749;-67
2020/12/21 07:57:09;;;;;;;14.27;8.63;;;8.80;99.90;;;;;;5040240;28;20719;-67
2020/12/21 08:00:00;;;;;;;12.27;8.20;;;8.80;99.90;;;;;;5048573;28;21150;-68
2020/12/21 08:02:49;;;;;;;12.40;8.00;;;8.90;99.90;;;;;;5038725;28;20629;-74
2020/12/21 08:05:34;;;;;;;12.40;8.03;;;8.80;99.90;;;;;;5045819;28;20605;-69
2020/12/21 08:08:22;;;;;;;11.57;7.80;;;8.70;99.90;;;;;;5048422;28;20671;-69
2020/12/21 08:11:15;;;;;;;11.53;7.80;;;8.70;99.90;;;;;;5058655;28;20641;-67
2020/12/21 08:14:00;;;;;;;10.60;7.70;;;8.70;99.90;;;;;;5035921;28;20716;-66
2020/12/21 08:16:45;;;;;;;10.13;7.60;;;8.70;99.90;;;;;;5042551;28;21239;-67
2020/12/21 08:19:30;;;;;;;14.73;7.63;;;8.60;99.90;;;;;;5051051;28;20624;-66
2020/12/21 08:22:21;;;;;;;13.27;7.70;;;8.60;99.90;;;;;;5042807;28;20660;-64
2020/12/21 08:25:14;;;;;;;12.37;7.23;;;8.50;99.90;;;;;;5048742;28;21104;-66
2020/12/21 08:27:58;;;;;;;11.50;7.53;;;8.60;99.90;;;;;;5044101;28;20584;-65
2020/12/21 08:30:43;;;;;;;10.37;6.93;;;8.50;99.90;;;;;;5043349;28;20593;-64
2020/12/21 08:33:28;;;;;;;13.90;7.53;;;8.50;99.90;;;;;;5049354;28;20671;-66
2020/12/21 08:36:16;;;;;;;8.80;6.70;;;8.50;99.90;;;;;;5042613;28;20621;-66
2020/12/21 08:39:14;;;;;;;15.33;8.20;;;8.50;99.90;;;;;;5050510;28;20963;-71
2020/12/21 08:41:59;;;;;;;10.10;6.50;;;8.40;99.90;;;;;;5036594;28;20725;-67
2020/12/21 08:44:44;;;;;;;13.67;6.83;;;8.50;99.90;;;;;;5039178;28;20998;-67
2020/12/21 08:47:29;;;;;;;9.50;6.47;;;8.50;99.90;;;;;;5027895;28;20597;-70
2020/12/21 08:50:13;;;;;;;8.50;6.53;;;8.40;99.90;;;;;;5057832;28;20674;-67
2020/12/21 08:53:00;;;;;;;13.47;7.57;;;8.40;99.90;;;;;;5039642;28;20640;-67
2020/12/21 08:55:45;;;;;;;14.87;7.30;;;8.50;99.90;;;;;;5046116;28;21230;-66
2020/12/21 08:58:29;;;;;;;12.20;6.93;;;8.40;99.90;;;;;;5054476;28;21178;-67
2020/12/21 09:01:14;;;;;;;12.87;6.20;;;8.40;99.90;;;;;;5041729;28;20640;-67
2020/12/21 09:03:58;;;;;;;12.10;6.40;;;8.50;99.90;;;;;;5029484;28;20673;-67
2020/12/21 09:06:43;;;;;;;10.63;6.20;;;8.50;99.90;;;;;;5049443;28;20585;-66
2020/12/21 09:09:28;;;;;;;9.73;6.50;;;8.60;99.90;;;;;;5041483;28;21150;-67
2020/12/21 09:12:12;;;;;;;12.63;6.87;;;8.60;99.90;;;;;;5040757;28;20644;-67
2020/12/21 09:14:57;;;;;;;8.57;5.63;;;8.60;99.90;;;;;;5049021;28;20644;-66
2020/12/21 09:17:42;;;;;;;9.07;5.40;;;8.60;99.90;;;;;;5040143;28;20759;-67
2020/12/21 09:20:26;;;;;;;12.60;6.50;;;8.70;99.90;;;;;;5042307;28;20687;-66
2020/12/21 09:23:11;;;;;;;10.37;5.63;;;8.70;99.90;;;;;;5031230;28;21124;-66
2020/12/21 09:25:56;;;;;;;13.37;5.47;;;8.70;99.90;;;;;;5044189;28;20749;-65
2020/12/21 09:28:40;;;;;;;12.73;5.77;;;8.70;99.90;;;;;;5050580;28;20626;-67
2020/12/21 09:31:25;;;;;;;9.60;5.33;;;8.80;99.90;;;;;;5039822;28;20792;-66
2020/12/21 09:34:10;;;;;;;5.53;4.80;;;8.80;99.90;;;;;;5039116;28;20668;-72
2020/12/21 09:36:54;;;;;;;11.77;6.00;;;8.80;99.90;;;;;;5042105;28;20756;-72
2020/12/21 09:39:38;;;;;;;9.03;5.10;;;8.80;99.90;;;;;;5055137;28;20593;-70
2020/12/21 09:42:24;;;;;;;11.57;4.93;;;8.80;99.90;;;;;;5063538;28;20649;-70
2020/12/21 09:45:09;;;;;;;7.50;4.73;;;8.70;99.90;;;;;;5048481;28;20660;-70
2020/12/21 09:47:55;;;;;;;10.67;4.67;;;8.90;99.90;;;;;;5049173;28;20636;-69
2020/12/21 09:50:40;;;;;;;9.47;5.67;;;8.90;99.90;;;;;;5039788;28;20589;-72
2020/12/21 09:53:25;;;;;;;7.87;4.67;;;9.00;99.90;;;;;;5035226;28;20735;-71
2020/12/21 09:56:12;;;;;;;9.03;4.57;;;9.00;99.90;;;;;;5042432;28;20694;-72
2020/12/21 09:58:56;;;;;;;8.73;4.90;;;9.10;99.90;;;;;;5035737;28;22716;-69
2020/12/21 10:01:41;;;;;;;7.33;4.00;;;9.20;99.90;;;;;;5040311;28;21294;-71
2020/12/21 10:04:25;;;;;;;6.93;4.33;;;9.20;99.90;;;;;;5051980;28;20651;-67
2020/12/21 10:07:10;;;;;;;13.50;4.60;;;9.20;99.90;;;;;;5043957;28;20600;-66
2020/12/21 10:09:54;;;;;;;7.87;4.93;;;9.20;99.90;;;;;;5046741;28;20631;-67
2020/12/21 10:12:39;;;;;;;6.17;4.00;;;9.30;99.90;;;;;;5045161;28;21086;-67
2020/12/21 10:15:23;;;;;;;5.50;3.70;;;9.40;99.90;;;;;;5057346;28;20608;-68
2020/12/21 10:18:08;;;;;;;7.33;3.80;;;9.40;99.90;;;;;;5045682;28;20729;-71
2020/12/21 10:20:53;;;;;;;10.87;4.60;;;9.40;99.90;;;;;;5048428;28;20596;-66
2020/12/21 10:23:37;;;;;;;7.30;3.90;;;9.50;99.90;;;;;;5063544;28;20745;-68
2020/12/21 10:26:23;;;;;;;5.27;3.60;;;9.50;99.90;;;;;;5063215;28;20203;-72
2020/12/21 10:29:08;;;;;;;9.80;4.30;;;9.70;99.90;;;;;;5071324;28;20639;-75
2020/12/21 10:31:55;;;;;;;5.63;3.80;;;9.90;99.90;;;;;;5043077;28;20665;-70
2020/12/21 10:34:39;;;;;;;5.63;4.43;;;10.00;99.90;;;;;;5049012;28;20644;-69
2020/12/21 10:37:23;;;;;;;7.00;4.20;;;10.00;99.90;;;;;;5047664;28;20660;-69
2020/12/21 10:40:08;;;;;;;8.90;4.90;;;10.10;99.90;;;;;;5046041;28;20585;-70
2020/12/21 10:42:52;;;;;;;8.27;3.93;;;10.20;99.90;;;;;;5047624;28;20644;-69
2020/12/21 10:45:38;;;;;;;5.97;4.17;;;10.30;99.90;;;;;;5067982;28;20569;-69
2020/12/21 10:48:23;;;;;;;11.07;4.87;;;10.40;99.90;;;;;;5064392;28;20589;-69
2020/12/21 10:51:07;;;;;;;7.03;3.80;;;10.50;99.90;;;;;;5064662;28;20727;-69
2020/12/21 10:53:53;;;;;;;6.37;3.77;;;10.50;99.90;;;;;;5069825;28;20678;-69
2020/12/21 10:56:37;;;;;;;6.30;4.00;;;10.50;99.90;;;;;;5066778;28;20621;-69
2020/12/21 10:59:22;;;;;;;5.67;3.63;;;10.40;99.90;;;;;;5069964;28;20636;-69
2020/12/21 11:02:09;;;;;;;4.50;3.63;;;10.40;99.90;;;;;;5053008;28;20675;-69
2020/12/21 11:04:54;;;;;;;6.70;3.90;;;10.40;99.90;;;;;;5054050;28;20699;-69
2020/12/21 11:07:38;;;;;;;9.53;3.67;;;10.40;99.90;;;;;;5044030;28;20788;-69
2020/12/21 11:10:22;;;;;;;5.80;4.10;;;10.40;99.90;;;;;;5042338;28;20917;-69
2020/12/21 11:13:07;;;;;;;5.37;2.93;;;10.30;99.90;;;;;;5043449;28;20695;-69
2020/12/21 11:15:51;;;;;;;5.23;3.63;;;10.20;99.90;;;;;;5047131;28;20981;-69
2020/12/21 11:18:36;;;;;;;5.93;3.40;;;10.30;99.90;;;;;;5056093;28;20712;-69
2020/12/21 11:21:21;;;;;;;7.63;3.60;;;10.40;99.90;;;;;;5041546;28;20719;-70
2020/12/21 11:24:05;;;;;;;8.63;3.63;;;10.40;99.90;;;;;;5039668;28;20816;-69
2020/12/21 11:26:53;;;;;;;7.90;3.20;;;10.40;99.90;;;;;;5051411;28;20696;-70
2020/12/21 11:29:38;;;;;;;6.47;3.37;;;10.40;99.90;;;;;;5070254;28;20585;-69
2020/12/21 11:32:25;;;;;;;5.27;3.43;;;10.50;99.90;;;;;;5051930;28;20695;-69
2020/12/21 11:35:09;;;;;;;3.53;3.07;;;10.40;99.90;;;;;;5045245;28;20676;-69
2020/12/21 11:37:54;;;;;;;4.57;3.30;;;10.40;99.90;;;;;;5046718;28;20680;-69
2020/12/21 11:40:38;;;;;;;6.20;3.60;;;10.40;99.90;;;;;;5054665;28;20668;-68
2020/12/21 11:43:22;;;;;;;6.80;3.23;;;10.40;99.90;;;;;;5061436;28;21253;-68
2020/12/21 11:46:07;;;;;;;4.30;3.10;;;10.40;99.90;;;;;;5047400;28;20989;-69
2020/12/21 11:48:51;;;;;;;5.00;3.30;;;10.50;99.90;;;;;;5048812;28;20589;-68
2020/12/21 11:51:36;;;;;;;9.60;3.50;;;10.50;99.90;;;;;;5043397;28;20696;-68
2020/12/21 11:54:21;;;;;;;8.23;3.97;;;10.40;99.90;;;;;;5050803;28;20738;-68
2020/12/21 11:57:06;;;;;;;6.33;2.70;;;10.50;99.90;;;;;;5042842;28;20813;-69
2020/12/21 11:59:52;;;;;;;4.87;3.27;;;10.40;99.90;;;;;;5055050;28;20576;-68
2020/12/21 12:02:37;;;;;;;10.97;3.07;;;10.50;99.90;;;;;;5047312;28;20635;-69
2020/12/21 12:05:23;;;;;;;5.43;3.80;;;10.50;99.90;;;;;;5050111;28;20664;-69
2020/12/21 12:08:08;;;;;;;6.47;2.93;;;10.50;99.90;;;;;;5064610;28;21048;-68
2020/12/21 12:10:55;;;;;;;6.30;3.20;;;10.50;99.90;;;;;;5040638;28;21249;-68
2020/12/21 12:13:42;;;;;;;5.00;2.70;;;10.50;99.90;;;;;;5054431;28;20802;-68
2020/12/21 12:16:26;;;;;;;5.73;3.63;;;10.50;99.90;;;;;;5063153;28;20633;-68
2020/12/21 12:19:10;;;;;;;6.80;2.83;;;10.50;99.90;;;;;;5054285;28;20585;-69
2020/12/21 12:21:55;;;;;;;6.33;3.33;;;10.50;99.90;;;;;;5046842;28;20679;-69
2020/12/21 12:24:40;;;;;;;5.83;3.10;;;10.60;99.90;;;;;;5053772;28;20694;-69
2020/12/21 12:27:25;;;;;;;4.00;2.73;;;10.60;99.90;;;;;;5047129;28;20585;-69
2020/12/21 12:30:10;;;;;;;5.63;2.70;;;10.60;99.90;;;;;;5052394;28;20672;-69
2020/12/21 12:32:54;;;;;;;5.23;2.60;;;10.60;99.90;;;;;;5046994;28;20648;-69
2020/12/21 12:35:38;;;;;;;5.60;3.17;;;10.60;99.90;;;;;;5044330;28;21025;-69
2020/12/21 12:38:23;;;;;;;5.53;3.20;;;10.70;99.90;;;;;;5045726;28;20648;-69
2020/12/21 12:41:10;;;;;;;3.90;2.60;;;10.70;99.90;;;;;;5044450;28;20648;-69
2020/12/21 12:43:54;;;;;;;6.80;2.80;;;10.70;99.90;;;;;;5043295;28;20783;-69
2020/12/21 12:46:39;;;;;;;7.60;3.10;;;10.60;99.90;;;;;;5030088;28;20900;-69
2020/12/21 12:49:24;;;;;;;6.30;2.50;;;10.60;99.90;;;;;;5049633;28;20597;-72
2020/12/21 12:52:08;;;;;;;6.40;2.90;;;10.60;99.90;;;;;;5035115;28;20779;-76
2020/12/21 12:54:53;;;;;;;5.40;2.50;;;10.60;99.90;;;;;;5037213;28;20657;-71
2020/12/21 12:57:37;;;;;;;4.20;2.70;;;10.40;99.90;;;;;;5040155;28;20726;-75
2020/12/21 13:00:21;;;;;;;5.33;2.83;;;10.40;99.90;;;;;;5036533;28;20187;-69
2020/12/21 13:03:06;;;;;;;5.23;2.70;;;10.40;99.90;;;;;;5045563;28;20723;-71
2020/12/21 13:05:51;;;;;;;6.30;2.70;;;10.50;99.90;;;;;;5035986;28;21131;-70
2020/12/21 13:08:36;;;;;;;6.20;3.57;;;10.40;99.90;;;;;;5046261;28;20653;-68
2020/12/21 13:11:21;;;;;;;5.23;3.03;;;10.50;99.90;;;;;;5039707;28;20681;-69
2020/12/21 13:14:05;;;;;;;5.63;3.00;;;10.50;99.90;;;;;;5065198;28;20664;-66
2020/12/21 13:16:50;;;;;;;5.63;2.80;;;10.60;99.90;;;;;;5045397;28;20644;-70
2020/12/21 13:19:34;;;;;;;5.00;2.90;;;10.60;99.90;;;;;;5042245;28;20621;-71
2020/12/21 13:22:19;;;;;;;4.60;2.40;;;10.50;99.90;;;;;;5047197;28;20691;-71
2020/12/21 13:25:04;;;;;;;5.67;3.00;;;10.50;99.90;;;;;;5050808;28;21131;-71
2020/12/21 13:27:48;;;;;;;3.97;2.97;;;10.60;99.90;;;;;;5042317;28;20731;-72
2020/12/21 13:30:33;;;;;;;8.50;3.10;;;10.70;99.90;;;;;;5041835;28;20732;-72
2020/12/21 13:33:19;;;;;;;4.23;2.93;;;10.70;99.90;;;;;;5043014;28;20763;-71
2020/12/21 13:36:04;;;;;;;3.83;2.60;;;10.70;99.90;;;;;;5060539;28;20972;-76
2020/12/21 13:38:49;;;;;;;4.20;2.93;;;10.70;99.90;;;;;;5052232;28;20610;-74
2020/12/21 13:41:34;;;;;;;5.63;3.20;;;10.60;99.90;;;;;;5063188;28;20679;-74
2020/12/21 13:44:20;;;;;;;5.50;2.93;;;10.60;99.90;;;;;;5068818;28;20689;-71
2020/12/21 13:47:05;;;;;;;5.57;2.87;;;10.60;99.90;;;;;;5059526;28;20632;-71
2020/12/21 13:49:50;;;;;;;4.87;2.70;;;10.60;99.90;;;;;;5055637;28;20613;-72
2020/12/21 13:52:35;;;;;;;4.57;2.50;;;10.40;99.90;;;;;;5046388;28;20645;-72
2020/12/21 13:55:19;;;;;;;6.90;3.30;;;10.40;99.90;;;;;;5048917;28;20648;-71
2020/12/21 13:58:04;;;;;;;5.97;2.60;;;10.40;99.90;;;;;;5041431;28;20652;-71
2020/12/21 14:00:48;;;;;;;5.40;2.70;;;10.30;99.90;;;;;;5046108;28;21021;-71
2020/12/21 14:03:33;;;;;;;5.27;2.60;;;10.20;99.90;;;;;;5055824;28;20647;-72
2020/12/21 14:06:18;;;;;;;6.67;3.17;;;10.20;99.90;;;;;;5054111;28;20687;-70
2020/12/21 14:09:04;;;;;;;5.60;2.47;;;10.10;99.90;;;;;;5052815;28;20593;-70
2020/12/21 14:11:48;;;;;;;7.40;3.23;;;10.10;99.90;;;;;;5039045;28;21238;-71
2020/12/21 14:14:33;;;;;;;4.67;3.07;;;10.10;99.90;;;;;;5042964;28;21238;-72
2020/12/21 14:17:18;;;;;;;6.60;3.97;;;10.10;99.90;;;;;;5042182;28;20624;-73
2020/12/21 14:20:03;;;;;;;5.40;3.37;;;10.00;99.90;;;;;;5039916;28;20796;-70
2020/12/21 14:22:47;;;;;;;8.30;3.63;;;10.00;99.90;;;;;;5038931;28;20629;-73